Rockaway Beach, New York
Current Conditions -  °F | °C
As of 6:51 PM on Wednesday 28 Jan 2015 (Local Time) from KJFK Reporting Station
Clear Clear  
Wind Chill: 22°   Ceiling: Unl
Heat Index: 30°   Visibility: 10mi
Dew Point:   Wind: 9mph
Humidity: 41%   Direction: 340°NNW
Pressure: 30.2"   Gusts: NA
Location:  40.6184°N, 73.8256°W
Report Text: KJFK 282351Z 34008KT 10SM CLR M01/M13 A3020 RMK AO2 SLP226 4/009 T10111128 10006 21017 51031 $
Loading
Personal Weather Stations






























Interactive Weather Map New forecast layout! Learn more

10-Day Weather Forecast

Advertisements
Track Severe Weather on mobile